createdAt,value
2023-05-16T00:00:11.740Z,9.89
2023-05-16T00:02:16.494Z,9.86
2023-05-16T00:04:20.428Z,9.83
2023-05-16T00:06:25.660Z,9.81
2023-05-16T00:08:29.323Z,9.79
2023-05-16T00:10:33.137Z,9.78
2023-05-16T00:12:37.005Z,9.74
2023-05-16T00:14:40.732Z,9.75
2023-05-16T00:16:44.564Z,9.71
2023-05-16T00:18:48.518Z,9.68
2023-05-16T00:20:52.548Z,9.67
2023-05-16T00:23:01.298Z,9.68
2023-05-16T00:25:05.402Z,9.64
2023-05-16T00:27:09.150Z,9.60
2023-05-16T00:29:12.926Z,9.59
2023-05-16T00:31:16.576Z,9.59
2023-05-16T00:33:21.174Z,9.54
2023-05-16T00:35:25.162Z,9.53
2023-05-16T00:37:28.874Z,9.53
2023-05-16T00:39:34.085Z,9.52
2023-05-16T00:41:38.319Z,9.51
2023-05-16T00:43:42.449Z,9.49
2023-05-16T00:45:45.994Z,9.49
2023-05-16T00:47:49.873Z,9.46
2023-05-16T00:49:53.625Z,9.43
2023-05-16T00:51:59.981Z,9.43
2023-05-16T00:54:04.473Z,9.42
2023-05-16T00:56:09.796Z,9.40
2023-05-16T00:58:14.241Z,9.39
2023-05-16T01:00:20.232Z,9.36
2023-05-16T01:02:24.143Z,9.34
2023-05-16T01:04:29.591Z,9.32
2023-05-16T01:06:34.380Z,9.31
2023-05-16T01:08:37.968Z,9.29
2023-05-16T01:10:52.059Z,9.28
2023-05-16T01:13:10.647Z,9.25
2023-05-16T01:15:18.093Z,9.23
2023-05-16T01:17:31.039Z,9.21
2023-05-16T01:19:57.402Z,9.21
2023-05-16T01:22:06.681Z,9.19
2023-05-16T01:24:21.588Z,9.18
2023-05-16T01:26:28.808Z,9.19
2023-05-16T01:28:33.752Z,9.17
2023-05-16T01:30:41.478Z,9.09
2023-05-16T01:32:45.507Z,9.03
2023-05-16T01:34:49.073Z,9.00
2023-05-16T01:37:00.576Z,9.01
2023-05-16T01:39:13.090Z,8.99
2023-05-16T01:41:23.239Z,8.97
2023-05-16T01:43:35.897Z,8.95
2023-05-16T01:45:48.299Z,8.90
2023-05-16T01:48:02.408Z,8.87
2023-05-16T01:50:11.388Z,8.84
2023-05-16T01:52:19.033Z,8.84
2023-05-16T01:54:27.376Z,8.83
2023-05-16T01:56:32.908Z,8.82
2023-05-16T01:58:38.936Z,8.82
2023-05-16T02:00:42.559Z,8.78
2023-05-16T02:02:45.910Z,8.79
2023-05-16T02:04:49.229Z,8.79
2023-05-16T02:06:53.014Z,8.80
2023-05-16T02:08:56.415Z,8.80
2023-05-16T02:10:59.658Z,8.82
2023-05-16T02:13:03.027Z,8.80
2023-05-16T02:15:09.052Z,8.78
2023-05-16T02:17:12.476Z,8.77
2023-05-16T02:19:15.812Z,8.76
2023-05-16T02:21:19.254Z,8.75
2023-05-16T02:23:22.557Z,8.76
2023-05-16T02:25:26.573Z,8.75
2023-05-16T02:27:30.091Z,8.75
2023-05-16T02:29:33.379Z,8.71
2023-05-16T02:31:38.208Z,8.68
2023-05-16T02:33:41.901Z,8.67
2023-05-16T02:35:45.964Z,8.64
2023-05-16T02:37:49.229Z,8.62
2023-05-16T02:39:53.681Z,8.57
2023-05-16T02:41:57.060Z,8.55
2023-05-16T02:44:00.363Z,8.52
2023-05-16T02:46:06.270Z,8.51
2023-05-16T02:48:12.062Z,8.48
2023-05-16T02:50:15.385Z,8.43
2023-05-16T02:52:18.834Z,8.39
2023-05-16T02:54:22.231Z,8.33
2023-05-16T02:56:26.339Z,8.31
2023-05-16T02:58:29.682Z,8.27
2023-05-16T03:00:33.979Z,8.28
2023-05-16T03:02:37.286Z,8.24
2023-05-16T03:04:44.602Z,8.23
2023-05-16T03:06:47.932Z,8.22
2023-05-16T03:08:51.265Z,8.21
2023-05-16T03:10:54.601Z,8.19
2023-05-16T03:12:57.864Z,8.17
2023-05-16T03:15:01.968Z,8.16
2023-05-16T03:17:06.601Z,8.13
2023-05-16T03:19:10.730Z,8.10
2023-05-16T03:21:16.065Z,8.10
2023-05-16T03:23:22.068Z,8.10
2023-05-16T03:25:26.780Z,8.09
2023-05-16T03:27:30.555Z,8.10
2023-05-16T03:29:34.183Z,8.10
2023-05-16T03:31:37.868Z,8.11
2023-05-16T03:33:41.740Z,8.07
2023-05-16T03:35:45.959Z,8.07
2023-05-16T03:37:51.430Z,8.06
2023-05-16T03:39:55.326Z,8.05
2023-05-16T03:41:59.284Z,8.02
2023-05-16T03:44:02.891Z,7.99
2023-05-16T03:46:06.530Z,7.98
2023-05-16T03:48:11.041Z,7.98
2023-05-16T03:50:14.611Z,7.97
2023-05-16T03:52:18.118Z,7.97
2023-05-16T03:54:23.712Z,7.96
2023-05-16T03:56:27.509Z,7.97
2023-05-16T03:58:31.272Z,7.98
2023-05-16T04:00:36.919Z,7.95
2023-05-16T04:02:42.068Z,7.92
2023-05-16T04:04:46.099Z,7.92
2023-05-16T04:06:49.672Z,7.88
2023-05-16T04:08:53.277Z,7.84
2023-05-16T04:10:58.463Z,7.83
2023-05-16T04:13:02.190Z,7.83
2023-05-16T04:15:07.305Z,7.83
2023-05-16T04:17:11.345Z,7.80
2023-05-16T04:19:14.877Z,7.79
2023-05-16T04:21:18.734Z,7.80
2023-05-16T04:23:22.369Z,7.81
2023-05-16T04:25:26.226Z,7.81
2023-05-16T04:27:31.770Z,7.82
2023-05-16T04:29:35.393Z,7.81
2023-05-16T04:31:39.459Z,7.81
2023-05-16T04:33:43.217Z,7.81
2023-05-16T04:35:46.773Z,7.80
2023-05-16T04:37:50.369Z,7.82
2023-05-16T04:39:54.611Z,7.83
2023-05-16T04:41:59.481Z,7.82
2023-05-16T04:44:05.360Z,7.80
2023-05-16T04:46:09.151Z,7.81
2023-05-16T04:48:13.760Z,7.83
2023-05-16T04:50:18.438Z,7.86
2023-05-16T04:52:22.310Z,7.87
2023-05-16T04:54:26.562Z,7.90
2023-05-16T04:56:30.313Z,7.93
2023-05-16T04:58:33.894Z,7.97
2023-05-16T05:00:38.983Z,8.03
2023-05-16T05:02:42.220Z,8.06
2023-05-16T05:04:45.808Z,8.12
2023-05-16T05:06:49.402Z,8.16
2023-05-16T05:08:52.913Z,8.20
2023-05-16T05:10:58.084Z,8.24
2023-05-16T05:13:01.550Z,8.31
2023-05-16T05:15:05.707Z,8.38
2023-05-16T05:17:10.518Z,8.45
2023-05-16T05:19:14.342Z,8.50
2023-05-16T05:21:18.688Z,8.55
2023-05-16T05:23:22.417Z,8.60
2023-05-16T05:25:26.075Z,8.64
2023-05-16T05:27:29.979Z,8.69
2023-05-16T05:29:34.040Z,8.77
2023-05-16T05:31:37.589Z,8.95
2023-05-16T05:33:42.748Z,9.24
2023-05-16T05:35:46.268Z,9.63
2023-05-16T05:37:49.864Z,10.08
2023-05-16T05:39:53.426Z,10.56
2023-05-16T05:41:56.989Z,11.03
2023-05-16T05:44:00.728Z,11.53
2023-05-16T05:46:04.310Z,12.07
2023-05-16T05:48:08.696Z,12.53
2023-05-16T05:50:14.533Z,13.07
2023-05-16T05:52:18.140Z,13.58
2023-05-16T05:54:21.637Z,13.99
2023-05-16T05:56:25.768Z,14.32
2023-05-16T05:58:29.205Z,14.68
2023-05-16T06:00:32.854Z,14.93
2023-05-16T06:02:37.361Z,15.11
2023-05-16T06:04:43.019Z,15.31
2023-05-16T06:06:47.932Z,15.50
2023-05-16T06:08:51.540Z,15.79
2023-05-16T06:10:55.295Z,16.06
2023-05-16T06:12:59.128Z,16.24
2023-05-16T06:15:02.795Z,16.43
2023-05-16T06:17:06.906Z,16.68
2023-05-16T06:19:12.814Z,16.91
2023-05-16T06:21:16.515Z,17.06
2023-05-16T06:23:22.177Z,17.27
2023-05-16T06:25:25.972Z,17.55
2023-05-16T06:27:29.740Z,17.86
2023-05-16T06:29:33.258Z,17.96
2023-05-16T06:31:37.084Z,17.87
2023-05-16T06:33:41.134Z,17.72
2023-05-16T06:35:45.007Z,17.72
2023-05-16T06:37:48.867Z,17.74
2023-05-16T06:39:54.306Z,17.76
2023-05-16T06:41:58.200Z,17.65
2023-05-16T06:44:02.165Z,17.63
2023-05-16T06:46:06.195Z,17.68
2023-05-16T06:48:10.164Z,17.63
2023-05-16T06:50:14.524Z,17.57
2023-05-16T06:52:18.277Z,17.65
2023-05-16T06:54:22.138Z,17.82
2023-05-16T06:56:29.131Z,17.88
2023-05-16T06:58:32.788Z,17.98
2023-05-16T07:00:36.907Z,18.34
2023-05-16T07:02:40.652Z,18.45
2023-05-16T07:04:44.523Z,18.43
2023-05-16T07:06:48.436Z,18.47
2023-05-16T07:08:52.939Z,18.48
2023-05-16T07:10:57.368Z,18.43
2023-05-16T07:13:03.250Z,18.43
2023-05-16T07:15:09.144Z,18.59
2023-05-16T07:17:13.898Z,18.80
2023-05-16T07:19:18.352Z,18.91
2023-05-16T07:21:22.429Z,19.03
2023-05-16T07:23:27.029Z,19.03
2023-05-16T07:25:31.989Z,18.74
2023-05-16T07:27:35.990Z,18.35
2023-05-16T07:29:43.233Z,17.91
2023-05-16T07:31:48.235Z,17.42
2023-05-16T07:33:52.853Z,17.18
2023-05-16T07:36:07.922Z,17.34
2023-05-16T07:38:19.465Z,17.71
2023-05-16T07:40:26.219Z,18.26
2023-05-16T07:42:30.594Z,18.73
2023-05-16T07:44:35.199Z,18.82
2023-05-16T07:46:40.934Z,18.85
2023-05-16T07:48:47.279Z,19.01
2023-05-16T07:50:52.099Z,19.10
2023-05-16T07:52:58.170Z,19.11
2023-05-16T07:55:02.308Z,19.10
2023-05-16T07:57:06.841Z,19.07
2023-05-16T07:59:10.812Z,19.09
2023-05-16T08:01:14.547Z,19.14
2023-05-16T08:03:19.892Z,19.05
2023-05-16T08:05:24.225Z,18.86
2023-05-16T08:07:28.813Z,18.80
2023-05-16T08:09:33.727Z,18.77
2023-05-16T08:11:37.641Z,18.77
2023-05-16T08:13:41.355Z,18.57
2023-05-16T08:15:45.187Z,18.47
2023-05-16T08:17:49.908Z,18.35
2023-05-16T08:19:55.378Z,18.36
2023-05-16T08:21:59.574Z,18.27
2023-05-16T08:24:07.620Z,17.87
2023-05-16T08:26:12.856Z,17.45
2023-05-16T08:28:17.781Z,17.03
2023-05-16T08:30:21.655Z,16.65
2023-05-16T08:32:26.170Z,16.35
2023-05-16T08:34:33.087Z,15.98
2023-05-16T08:36:39.241Z,15.69
2023-05-16T08:38:42.902Z,15.39
2023-05-16T08:40:47.406Z,15.12
2023-05-16T08:42:52.102Z,14.78
2023-05-16T08:44:57.222Z,14.43
2023-05-16T08:47:07.648Z,14.22
2023-05-16T08:49:13.007Z,14.14
2023-05-16T08:51:19.510Z,14.03
2023-05-16T08:53:33.418Z,13.99
2023-05-16T08:55:38.090Z,14.00
2023-05-16T08:57:42.773Z,14.03
2023-05-16T08:59:47.270Z,14.07
2023-05-16T09:01:51.605Z,14.08
2023-05-16T09:03:56.942Z,14.08
2023-05-16T09:06:01.096Z,14.18
2023-05-16T09:08:05.244Z,14.26
2023-05-16T09:10:12.257Z,14.19
2023-05-16T09:12:16.236Z,14.13
2023-05-16T09:14:20.410Z,14.17
2023-05-16T09:16:24.462Z,14.26
2023-05-16T09:18:28.523Z,14.38
2023-05-16T09:20:33.097Z,14.41
2023-05-16T09:22:36.598Z,14.38
2023-05-16T09:24:41.268Z,14.45
2023-05-16T09:26:47.418Z,14.51
2023-05-16T09:28:55.455Z,14.55
2023-05-16T09:31:00.673Z,14.62
2023-05-16T09:33:04.640Z,14.77
2023-05-16T09:35:13.216Z,14.94
2023-05-16T09:37:17.688Z,15.00
2023-05-16T09:39:23.814Z,15.01
2023-05-16T09:41:27.622Z,14.98
2023-05-16T09:43:33.981Z,15.00
2023-05-16T09:45:39.537Z,15.11
2023-05-16T09:47:47.459Z,15.25
2023-05-16T09:49:54.698Z,15.34
2023-05-16T09:52:01.366Z,15.36
2023-05-16T09:54:10.195Z,15.39
2023-05-16T09:56:16.332Z,15.54
2023-05-16T09:58:20.154Z,15.71
2023-05-16T10:00:31.597Z,15.79
2023-05-16T10:02:36.800Z,15.77
2023-05-16T10:04:41.036Z,15.80
2023-05-16T10:06:47.220Z,15.80
2023-05-16T10:08:52.465Z,15.85
2023-05-16T10:10:57.694Z,15.92
2023-05-16T10:13:03.711Z,16.10
2023-05-16T10:15:08.538Z,16.09
2023-05-16T10:17:17.385Z,15.88
2023-05-16T10:19:25.713Z,15.75
2023-05-16T10:21:31.035Z,15.76
2023-05-16T10:23:35.597Z,15.83
2023-05-16T10:25:44.718Z,15.90
2023-05-16T10:27:48.865Z,15.87
2023-05-16T10:29:54.963Z,15.99
2023-05-16T10:32:01.208Z,15.98
2023-05-16T10:34:06.698Z,16.06
2023-05-16T10:36:12.580Z,16.26
2023-05-16T10:38:19.093Z,16.25
2023-05-16T10:40:24.307Z,16.21
2023-05-16T10:42:28.390Z,16.35
2023-05-16T10:44:34.747Z,16.56
2023-05-16T10:46:40.380Z,16.74
2023-05-16T10:48:45.034Z,16.84
2023-05-16T10:50:50.508Z,16.69
2023-05-16T10:52:54.987Z,16.70
2023-05-16T10:55:03.784Z,16.84
2023-05-16T10:57:10.200Z,16.92
2023-05-16T10:59:41.945Z,17.13
2023-05-16T11:01:45.909Z,17.13
2023-05-16T11:04:08.547Z,16.94
2023-05-16T11:06:14.753Z,16.76
2023-05-16T11:08:20.397Z,16.58
2023-05-16T11:10:24.122Z,16.42
2023-05-16T11:12:38.772Z,16.45
2023-05-16T11:14:43.892Z,16.62
2023-05-16T11:16:52.009Z,16.74
2023-05-16T11:18:56.193Z,16.71
2023-05-16T11:21:06.092Z,16.51
2023-05-16T11:23:25.964Z,16.32
2023-05-16T11:25:41.564Z,16.14
2023-05-16T11:27:47.164Z,15.96
2023-05-16T11:29:51.775Z,15.82
2023-05-16T11:31:55.840Z,15.90
2023-05-16T11:34:00.276Z,16.09
2023-05-16T11:36:15.344Z,16.18
2023-05-16T11:38:20.608Z,16.08
2023-05-16T11:40:26.299Z,16.03
2023-05-16T11:42:34.319Z,16.05
2023-05-16T11:44:38.406Z,16.12
2023-05-16T11:46:42.631Z,16.15
2023-05-16T11:48:47.656Z,16.23
2023-05-16T11:50:54.833Z,16.44
2023-05-16T11:52:59.618Z,16.57
2023-05-16T11:55:05.006Z,16.55
2023-05-16T11:57:11.714Z,16.59
2023-05-16T11:59:16.085Z,16.63
2023-05-16T12:01:20.399Z,16.64
2023-05-16T12:03:25.534Z,16.65
2023-05-16T12:05:32.448Z,16.56
2023-05-16T12:07:37.189Z,16.50
2023-05-16T12:09:41.345Z,16.39
2023-05-16T12:11:46.050Z,16.49
2023-05-16T12:13:51.227Z,16.54
2023-05-16T12:15:55.478Z,16.53
2023-05-16T12:17:59.707Z,16.52
2023-05-16T12:20:06.351Z,16.59
2023-05-16T12:22:19.156Z,16.64
2023-05-16T12:24:23.014Z,16.66
2023-05-16T12:26:31.129Z,16.75
2023-05-16T12:28:36.544Z,16.84
2023-05-16T12:30:44.749Z,16.96
2023-05-16T12:33:05.813Z,17.02
2023-05-16T12:35:19.065Z,17.05
2023-05-16T12:37:24.343Z,17.06
2023-05-16T12:39:29.254Z,17.03
2023-05-16T12:41:35.458Z,16.95
2023-05-16T12:43:40.130Z,16.82
2023-05-16T12:45:53.590Z,16.76
2023-05-16T12:47:58.830Z,16.60
2023-05-16T12:50:04.800Z,16.41
2023-05-16T12:52:23.655Z,16.22
2023-05-16T12:54:28.858Z,16.13
2023-05-16T12:56:36.881Z,16.10
2023-05-16T12:58:43.936Z,16.12
2023-05-16T13:00:50.878Z,16.11
2023-05-16T13:02:56.831Z,16.19
2023-05-16T13:05:03.203Z,16.24
2023-05-16T13:07:09.810Z,16.34
2023-05-16T13:09:15.574Z,16.45
2023-05-16T13:11:21.935Z,16.60
2023-05-16T13:13:35.805Z,16.63
2023-05-16T13:15:40.570Z,16.67
2023-05-16T13:17:46.116Z,16.73
2023-05-16T13:19:50.005Z,16.76
2023-05-16T13:21:54.006Z,16.81
2023-05-16T13:23:59.187Z,16.83
2023-05-16T13:26:03.457Z,16.83
2023-05-16T13:28:07.460Z,16.80
2023-05-16T13:30:11.952Z,16.74
2023-05-16T13:32:16.060Z,16.71
2023-05-16T13:34:21.925Z,16.63
2023-05-16T13:36:26.031Z,16.63
2023-05-16T13:38:30.205Z,16.63
2023-05-16T13:40:36.203Z,16.58
2023-05-16T13:42:44.534Z,16.52
2023-05-16T13:44:50.569Z,16.45
2023-05-16T13:46:58.573Z,16.42
2023-05-16T13:49:03.950Z,16.40
2023-05-16T13:51:11.427Z,16.38
2023-05-16T13:53:17.625Z,16.35
2023-05-16T13:55:24.882Z,16.38
2023-05-16T13:57:30.474Z,16.43
2023-05-16T14:01:49.585Z,16.38
2023-05-16T14:03:56.270Z,16.38
2023-05-16T14:06:08.995Z,16.40
2023-05-16T14:08:17.870Z,16.44
2023-05-16T14:10:22.868Z,16.47
2023-05-16T14:12:30.208Z,16.43
2023-05-16T14:14:36.567Z,16.40
2023-05-16T14:16:45.666Z,16.40
2023-05-16T14:18:50.412Z,16.45
2023-05-16T14:20:58.331Z,16.53
2023-05-16T14:23:03.001Z,16.58
2023-05-16T14:25:12.465Z,16.57
2023-05-16T14:27:19.280Z,16.54
2023-05-16T14:29:26.699Z,16.55
2023-05-16T14:31:33.215Z,16.58
2023-05-16T14:33:38.086Z,16.53
2023-05-16T14:35:43.644Z,16.47
2023-05-16T14:37:53.297Z,16.40
2023-05-16T14:40:01.448Z,16.35
2023-05-16T14:42:09.320Z,16.38
2023-05-16T14:44:25.576Z,16.43
2023-05-16T14:46:31.109Z,16.50
2023-05-16T14:48:37.473Z,16.56
2023-05-16T14:50:44.968Z,16.54
2023-05-16T14:52:53.633Z,16.54
2023-05-16T14:54:58.402Z,16.55
2023-05-16T14:57:04.276Z,16.48
2023-05-16T14:59:10.144Z,16.43
2023-05-16T15:01:17.012Z,16.40
2023-05-16T15:03:22.404Z,16.37
2023-05-16T15:05:27.190Z,16.37
2023-05-16T15:07:32.838Z,16.35
2023-05-16T15:09:37.540Z,16.41
2023-05-16T15:11:43.150Z,16.39
2023-05-16T15:13:48.934Z,16.44
2023-05-16T15:16:00.351Z,16.48
2023-05-16T15:18:05.681Z,16.50
2023-05-16T15:20:12.340Z,16.51
2023-05-16T15:22:16.574Z,16.56
2023-05-16T15:24:20.743Z,16.64
2023-05-16T15:26:25.348Z,16.70
2023-05-16T15:28:29.512Z,16.74
2023-05-16T15:30:33.217Z,16.78
2023-05-16T15:32:39.683Z,16.78
2023-05-16T15:34:43.835Z,16.79
2023-05-16T15:36:47.991Z,16.80
2023-05-16T15:38:53.192Z,16.81
2023-05-16T15:41:14.121Z,16.82
2023-05-16T15:43:23.207Z,16.90
2023-05-16T15:45:28.611Z,16.94
2023-05-16T15:47:33.231Z,16.95
2023-05-16T15:49:39.408Z,17.00
2023-05-16T15:51:44.002Z,17.05
2023-05-16T15:53:49.296Z,17.12
2023-05-16T15:55:53.344Z,17.18
2023-05-16T15:57:58.828Z,17.21
2023-05-16T16:00:03.405Z,17.15
2023-05-16T16:02:16.001Z,17.07
2023-05-16T16:04:23.370Z,17.04
2023-05-16T16:06:29.324Z,17.00
2023-05-16T16:08:33.770Z,17.04
2023-05-16T16:10:37.671Z,17.14
2023-05-16T16:12:42.031Z,17.19
2023-05-16T16:14:46.873Z,17.17
2023-05-16T16:16:51.219Z,17.21
2023-05-16T16:18:56.858Z,17.27
2023-05-16T16:21:01.503Z,17.31
2023-05-16T16:23:06.794Z,17.35
2023-05-16T16:25:11.375Z,17.38
2023-05-16T16:27:15.409Z,17.42
2023-05-16T16:29:19.743Z,17.48
2023-05-16T16:31:23.552Z,17.52
2023-05-16T16:33:27.892Z,17.57
2023-05-16T16:35:32.019Z,17.48
2023-05-16T16:37:36.362Z,17.35
2023-05-16T16:39:44.467Z,17.27
2023-05-16T16:41:48.733Z,17.24
2023-05-16T16:43:53.162Z,17.22
2023-05-16T16:45:56.993Z,17.27
2023-05-16T16:48:01.097Z,17.22
2023-05-16T16:50:05.362Z,17.21
2023-05-16T16:52:09.488Z,17.25
2023-05-16T16:54:14.248Z,17.22
2023-05-16T16:56:19.849Z,17.14
2023-05-16T16:58:23.710Z,17.06
2023-05-16T17:00:27.757Z,17.00
2023-05-16T17:02:32.040Z,16.93
2023-05-16T17:04:37.050Z,16.88
2023-05-16T17:06:42.536Z,16.84
2023-05-16T17:08:46.773Z,16.78
2023-05-16T17:10:50.865Z,16.74
2023-05-16T17:12:56.298Z,16.64
2023-05-16T17:14:59.933Z,16.56
2023-05-16T17:17:03.870Z,16.51
2023-05-16T17:19:08.654Z,16.50
2023-05-16T17:21:13.393Z,16.52
2023-05-16T17:23:16.804Z,16.53
2023-05-16T17:25:20.827Z,16.55
2023-05-16T17:27:25.148Z,16.53
2023-05-16T17:29:30.743Z,16.52
2023-05-16T17:31:34.477Z,16.52
2023-05-16T17:33:38.763Z,16.55
2023-05-16T17:35:43.517Z,16.62
2023-05-16T17:37:48.280Z,16.65
2023-05-16T17:39:52.871Z,16.68
2023-05-16T17:41:58.061Z,16.72
2023-05-16T17:44:02.409Z,16.74
2023-05-16T17:46:08.412Z,16.70
2023-05-16T17:48:13.064Z,16.66
2023-05-16T17:50:16.996Z,16.64
2023-05-16T17:52:23.238Z,16.64
2023-05-16T17:54:30.827Z,16.66
2023-05-16T17:56:34.819Z,16.65
2023-05-16T17:58:39.549Z,16.63
2023-05-16T18:00:43.053Z,16.64
2023-05-16T18:02:49.050Z,16.68
2023-05-16T18:04:54.144Z,16.71
2023-05-16T18:06:59.122Z,16.68
2023-05-16T18:09:06.473Z,16.63
2023-05-16T18:11:10.649Z,16.61
2023-05-16T18:13:15.340Z,16.62
2023-05-16T18:15:27.667Z,16.63
2023-05-16T18:17:32.142Z,16.67
2023-05-16T18:19:39.172Z,16.72
2023-05-16T18:21:44.552Z,16.78
2023-05-16T18:23:53.048Z,16.81
2023-05-16T18:25:58.015Z,16.81
2023-05-16T18:28:03.148Z,16.73
2023-05-16T18:30:09.454Z,16.62
2023-05-16T18:32:14.439Z,16.52
2023-05-16T18:34:17.872Z,16.44
2023-05-16T18:36:24.968Z,16.41
2023-05-16T18:38:33.149Z,16.47
2023-05-16T18:40:40.183Z,16.56
2023-05-16T18:42:44.745Z,16.53
2023-05-16T18:44:50.691Z,16.50
2023-05-16T18:46:55.412Z,16.50
2023-05-16T18:48:59.666Z,16.45
2023-05-16T18:51:03.933Z,16.36
2023-05-16T18:53:10.348Z,16.26
2023-05-16T18:55:15.898Z,16.19
2023-05-16T18:57:21.046Z,16.14
2023-05-16T18:59:25.965Z,16.14
2023-05-16T19:01:30.383Z,16.12
2023-05-16T19:03:34.781Z,16.12
2023-05-16T19:05:39.463Z,16.10
2023-05-16T19:07:43.842Z,16.06
2023-05-16T19:09:49.656Z,16.10
2023-05-16T19:11:56.208Z,16.11
2023-05-16T19:14:00.020Z,16.03
2023-05-16T19:16:04.755Z,15.98
2023-05-16T19:18:08.506Z,15.95
2023-05-16T19:20:13.319Z,15.95
2023-05-16T19:22:18.062Z,15.96
2023-05-16T19:24:22.781Z,15.95
2023-05-16T19:26:28.961Z,15.90
2023-05-16T19:28:33.985Z,15.83
2023-05-16T19:30:39.523Z,15.73
2023-05-16T19:32:44.327Z,15.64
2023-05-16T19:34:49.385Z,15.53
2023-05-16T19:36:54.254Z,15.46
2023-05-16T19:38:59.696Z,15.38
2023-05-16T19:41:05.554Z,15.32
2023-05-16T19:43:11.260Z,15.27
2023-05-16T19:45:15.441Z,15.19
2023-05-16T19:47:19.680Z,15.13
2023-05-16T19:49:23.361Z,15.07
2023-05-16T19:51:40.586Z,15.03
2023-05-16T19:53:47.307Z,15.02
2023-05-16T19:55:53.479Z,15.00
2023-05-16T19:57:57.689Z,15.01
2023-05-16T20:00:05.514Z,14.98
2023-05-16T20:02:18.965Z,14.93
2023-05-16T20:04:25.797Z,14.90
2023-05-16T20:06:29.965Z,14.89
2023-05-16T20:08:34.514Z,14.85
2023-05-16T20:10:38.489Z,14.84
2023-05-16T20:12:42.649Z,14.83
2023-05-16T20:14:46.897Z,14.82
2023-05-16T20:16:53.672Z,14.80
2023-05-16T20:18:57.826Z,14.78
2023-05-16T20:21:01.916Z,14.77
2023-05-16T20:23:06.020Z,14.73
2023-05-16T20:25:11.925Z,14.70
2023-05-16T20:27:25.223Z,14.67
2023-05-16T20:29:30.631Z,14.63
2023-05-16T20:31:34.897Z,14.52
2023-05-16T20:33:40.479Z,14.46
2023-05-16T20:35:44.612Z,14.38
2023-05-16T20:37:48.781Z,14.32
2023-05-16T20:39:52.613Z,14.27
2023-05-16T20:41:56.829Z,14.25
2023-05-16T20:44:01.254Z,14.16
2023-05-16T20:46:05.196Z,14.12
2023-05-16T20:48:09.414Z,14.10
2023-05-16T20:50:37.097Z,14.08
2023-05-16T20:52:40.992Z,14.08
2023-05-16T20:54:45.251Z,14.06
2023-05-16T20:56:49.959Z,14.06
2023-05-16T20:58:53.769Z,14.05
2023-05-16T21:00:58.880Z,14.04
2023-05-16T21:03:03.852Z,14.03
2023-05-16T21:05:23.437Z,13.99
2023-05-16T21:07:30.623Z,13.97
2023-05-16T21:09:38.142Z,13.93
2023-05-16T21:11:42.590Z,13.91
2023-05-16T21:13:46.557Z,13.87
2023-05-16T21:15:50.692Z,13.87
2023-05-16T21:17:55.759Z,13.86
2023-05-16T21:20:00.090Z,13.84
2023-05-16T21:22:04.408Z,13.82
2023-05-16T21:24:10.015Z,13.82
2023-05-16T21:26:13.851Z,13.82
2023-05-16T21:28:18.010Z,13.82
2023-05-16T21:30:21.662Z,13.82
2023-05-16T21:32:25.875Z,13.81
2023-05-16T21:34:29.722Z,13.79
2023-05-16T21:36:33.798Z,13.79
2023-05-16T21:38:37.825Z,13.78
2023-05-16T21:40:43.174Z,13.74
2023-05-16T21:42:47.320Z,13.73
2023-05-16T21:44:51.319Z,13.71
2023-05-16T21:46:54.999Z,13.69
2023-05-16T21:48:58.948Z,13.66
2023-05-16T21:51:02.797Z,13.63
2023-05-16T21:53:06.459Z,13.59
2023-05-16T21:55:10.812Z,13.53
2023-05-16T21:57:16.051Z,13.48
2023-05-16T21:59:19.686Z,13.44
2023-05-16T22:01:25.416Z,13.39
2023-05-16T22:03:29.094Z,13.34
2023-05-16T22:05:32.903Z,13.30
2023-05-16T22:07:37.146Z,13.25
2023-05-16T22:09:41.748Z,13.19
2023-05-16T22:11:45.431Z,13.14
2023-05-16T22:13:51.296Z,13.11
2023-05-16T22:16:03.854Z,13.07
2023-05-16T22:18:08.278Z,13.02
2023-05-16T22:20:12.735Z,12.99
2023-05-16T22:22:16.676Z,12.92
2023-05-16T22:24:20.401Z,12.85
2023-05-16T22:26:24.061Z,12.79
2023-05-16T22:28:27.761Z,12.73
2023-05-16T22:30:32.862Z,12.70
2023-05-16T22:32:37.213Z,12.67
2023-05-16T22:34:41.207Z,12.65
2023-05-16T22:36:45.345Z,12.66
2023-05-16T22:38:49.108Z,12.66
2023-05-16T22:40:52.921Z,12.67
2023-05-16T22:42:56.832Z,12.67
2023-05-16T22:45:00.688Z,12.67
2023-05-16T22:47:06.246Z,12.66
2023-05-16T22:49:10.000Z,12.65
2023-05-16T22:51:13.731Z,12.65
2023-05-16T22:53:17.432Z,12.63
2023-05-16T22:55:21.105Z,12.58
2023-05-16T22:57:24.876Z,12.55
2023-05-16T22:59:28.529Z,12.50
2023-05-16T23:01:32.295Z,12.48
2023-05-16T23:03:37.606Z,12.44
2023-05-16T23:05:41.777Z,12.41
2023-05-16T23:07:45.932Z,12.39
2023-05-16T23:09:49.861Z,12.37
2023-05-16T23:11:53.653Z,12.37
2023-05-16T23:13:57.527Z,12.38
2023-05-16T23:16:01.284Z,12.38
2023-05-16T23:18:05.136Z,12.39
2023-05-16T23:20:11.261Z,12.38
2023-05-16T23:22:14.997Z,12.36
2023-05-16T23:24:18.696Z,12.35
2023-05-16T23:26:22.395Z,12.35
2023-05-16T23:28:26.332Z,12.36
2023-05-16T23:30:30.102Z,12.37
2023-05-16T23:32:33.830Z,12.37
2023-05-16T23:34:37.496Z,12.34
2023-05-16T23:36:42.583Z,12.30
2023-05-16T23:38:46.260Z,12.28
2023-05-16T23:40:49.938Z,12.26
2023-05-16T23:42:54.072Z,12.24
2023-05-16T23:44:57.698Z,12.22
2023-05-16T23:47:01.768Z,12.20
2023-05-16T23:49:05.581Z,12.19
2023-05-16T23:51:09.479Z,12.16
2023-05-16T23:53:14.801Z,12.15
2023-05-16T23:55:20.580Z,12.12
2023-05-16T23:57:24.486Z,12.13
2023-05-16T23:59:28.277Z,12.11
